sensor_id;sensor_type;location;lat;lon;timestamp;P1;durP1;ratioP1;P2;durP2;ratioP2
39434;SDS011;66825;51.880;-0.518;2023-05-16T00:01:33;1.30;;;0.60;;
39434;SDS011;66825;51.880;-0.518;2023-05-16T00:03:59;1.17;;;0.57;;
39434;SDS011;66825;51.880;-0.518;2023-05-16T00:06:25;1.10;;;0.50;;
39434;SDS011;66825;51.880;-0.518;2023-05-16T00:08:50;1.98;;;0.68;;
39434;SDS011;66825;51.880;-0.518;2023-05-16T00:11:16;1.00;;;0.60;;
39434;SDS011;66825;51.880;-0.518;2023-05-16T00:13:42;0.50;;;0.40;;
39434;SDS011;66825;51.880;-0.518;2023-05-16T00:16:10;0.77;;;0.47;;
39434;SDS011;66825;51.880;-0.518;2023-05-16T00:18:38;0.80;;;0.60;;
39434;SDS011;66825;51.880;-0.518;2023-05-16T00:21:04;1.00;;;0.60;;
39434;SDS011;66825;51.880;-0.518;2023-05-16T00:23:30;0.85;;;0.60;;
39434;SDS011;66825;51.880;-0.518;2023-05-16T00:25:56;1.73;;;0.60;;
39434;SDS011;66825;51.880;-0.518;2023-05-16T00:28:21;0.80;;;0.40;;
39434;SDS011;66825;51.880;-0.518;2023-05-16T00:30:47;1.00;;;0.50;;
39434;SDS011;66825;51.880;-0.518;2023-05-16T00:33:12;1.48;;;0.60;;
39434;SDS011;66825;51.880;-0.518;2023-05-16T00:35:38;1.25;;;0.52;;
39434;SDS011;66825;51.880;-0.518;2023-05-16T00:38:03;0.90;;;0.50;;
39434;SDS011;66825;51.880;-0.518;2023-05-16T00:40:29;1.00;;;0.50;;
39434;SDS011;66825;51.880;-0.518;2023-05-16T00:42:55;1.42;;;0.50;;
39434;SDS011;66825;51.880;-0.518;2023-05-16T00:45:20;0.95;;;0.45;;
39434;SDS011;66825;51.880;-0.518;2023-05-16T00:47:46;1.00;;;0.50;;
39434;SDS011;66825;51.880;-0.518;2023-05-16T00:50:12;0.82;;;0.50;;
39434;SDS011;66825;51.880;-0.518;2023-05-16T00:52:37;0.90;;;0.50;;
39434;SDS011;66825;51.880;-0.518;2023-05-16T00:55:03;1.15;;;0.50;;
39434;SDS011;66825;51.880;-0.518;2023-05-16T00:57:29;0.73;;;0.50;;
39434;SDS011;66825;51.880;-0.518;2023-05-16T00:59:55;0.90;;;0.57;;
39434;SDS011;66825;51.880;-0.518;2023-05-16T01:02:20;1.60;;;0.60;;
39434;SDS011;66825;51.880;-0.518;2023-05-16T01:04:46;1.15;;;0.55;;
39434;SDS011;66825;51.880;-0.518;2023-05-16T01:07:13;0.70;;;0.50;;
39434;SDS011;66825;51.880;-0.518;2023-05-16T01:09:39;0.85;;;0.47;;
39434;SDS011;66825;51.880;-0.518;2023-05-16T01:17:54;0.70;;;0.40;;
39434;SDS011;66825;51.880;-0.518;2023-05-16T01:28:44;0.90;;;0.50;;
39434;SDS011;66825;51.880;-0.518;2023-05-16T01:31:11;0.77;;;0.40;;
39434;SDS011;66825;51.880;-0.518;2023-05-16T01:33:36;0.90;;;0.50;;
39434;SDS011;66825;51.880;-0.518;2023-05-16T01:41:17;0.90;;;0.50;;
39434;SDS011;66825;51.880;-0.518;2023-05-16T01:43:48;0.70;;;0.40;;
39434;SDS011;66825;51.880;-0.518;2023-05-16T01:46:25;1.30;;;0.75;;
39434;SDS011;66825;51.880;-0.518;2023-05-16T01:48:57;0.90;;;0.50;;
39434;SDS011;66825;51.880;-0.518;2023-05-16T01:51:47;1.30;;;0.40;;
39434;SDS011;66825;51.880;-0.518;2023-05-16T01:54:17;0.77;;;0.50;;
39434;SDS011;66825;51.880;-0.518;2023-05-16T01:56:50;0.85;;;0.60;;
39434;SDS011;66825;51.880;-0.518;2023-05-16T01:59:18;0.77;;;0.47;;
39434;SDS011;66825;51.880;-0.518;2023-05-16T02:01:45;0.82;;;0.50;;
39434;SDS011;66825;51.880;-0.518;2023-05-16T02:04:10;1.00;;;0.57;;
39434;SDS011;66825;51.880;-0.518;2023-05-16T02:06:37;0.50;;;0.38;;
39434;SDS011;66825;51.880;-0.518;2023-05-16T02:09:02;0.90;;;0.47;;
39434;SDS011;66825;51.880;-0.518;2023-05-16T02:11:28;0.70;;;0.40;;
39434;SDS011;66825;51.880;-0.518;2023-05-16T02:13:53;1.27;;;0.60;;
39434;SDS011;66825;51.880;-0.518;2023-05-16T02:16:19;1.25;;;0.50;;
39434;SDS011;66825;51.880;-0.518;2023-05-16T02:18:44;1.10;;;0.50;;
39434;SDS011;66825;51.880;-0.518;2023-05-16T02:21:10;1.52;;;0.57;;
39434;SDS011;66825;51.880;-0.518;2023-05-16T02:23:35;0.98;;;0.50;;
39434;SDS011;66825;51.880;-0.518;2023-05-16T02:26:00;0.70;;;0.50;;
39434;SDS011;66825;51.880;-0.518;2023-05-16T02:28:26;1.23;;;0.52;;
39434;SDS011;66825;51.880;-0.518;2023-05-16T02:30:55;0.75;;;0.40;;
39434;SDS011;66825;51.880;-0.518;2023-05-16T02:33:27;0.50;;;0.40;;
39434;SDS011;66825;51.880;-0.518;2023-05-16T02:35:53;1.15;;;0.50;;
39434;SDS011;66825;51.880;-0.518;2023-05-16T02:38:19;0.95;;;0.45;;
39434;SDS011;66825;51.880;-0.518;2023-05-16T02:40:48;0.95;;;0.40;;
39434;SDS011;66825;51.880;-0.518;2023-05-16T02:43:13;0.68;;;0.47;;
39434;SDS011;66825;51.880;-0.518;2023-05-16T02:45:39;0.90;;;0.47;;
39434;SDS011;66825;51.880;-0.518;2023-05-16T02:48:05;0.70;;;0.40;;
39434;SDS011;66825;51.880;-0.518;2023-05-16T02:50:30;0.70;;;0.30;;
39434;SDS011;66825;51.880;-0.518;2023-05-16T02:52:56;0.93;;;0.50;;
39434;SDS011;66825;51.880;-0.518;2023-05-16T02:55:24;0.70;;;0.50;;
39434;SDS011;66825;51.880;-0.518;2023-05-16T02:57:50;0.75;;;0.50;;
39434;SDS011;66825;51.880;-0.518;2023-05-16T03:00:16;0.57;;;0.43;;
39434;SDS011;66825;51.880;-0.518;2023-05-16T03:02:42;0.93;;;0.47;;
39434;SDS011;66825;51.880;-0.518;2023-05-16T03:05:09;0.80;;;0.50;;
39434;SDS011;66825;51.880;-0.518;2023-05-16T03:07:36;1.08;;;0.60;;
39434;SDS011;66825;51.880;-0.518;2023-05-16T03:10:02;1.17;;;0.47;;
39434;SDS011;66825;51.880;-0.518;2023-05-16T03:12:27;0.73;;;0.50;;
39434;SDS011;66825;51.880;-0.518;2023-05-16T03:14:53;1.20;;;0.47;;
39434;SDS011;66825;51.880;-0.518;2023-05-16T03:17:18;0.82;;;0.43;;
39434;SDS011;66825;51.880;-0.518;2023-05-16T03:19:44;0.70;;;0.40;;
39434;SDS011;66825;51.880;-0.518;2023-05-16T03:22:10;0.65;;;0.40;;
39434;SDS011;66825;51.880;-0.518;2023-05-16T03:24:36;0.63;;;0.43;;
39434;SDS011;66825;51.880;-0.518;2023-05-16T03:27:01;1.20;;;0.45;;
39434;SDS011;66825;51.880;-0.518;2023-05-16T03:29:28;1.05;;;0.40;;
39434;SDS011;66825;51.880;-0.518;2023-05-16T03:31:54;1.02;;;0.52;;
39434;SDS011;66825;51.880;-0.518;2023-05-16T03:34:20;0.93;;;0.45;;
39434;SDS011;66825;51.880;-0.518;2023-05-16T03:36:46;1.10;;;0.43;;
39434;SDS011;66825;51.880;-0.518;2023-05-16T03:39:15;1.27;;;0.45;;
39434;SDS011;66825;51.880;-0.518;2023-05-16T03:41:41;0.70;;;0.40;;
39434;SDS011;66825;51.880;-0.518;2023-05-16T03:44:06;1.10;;;0.50;;
39434;SDS011;66825;51.880;-0.518;2023-05-16T03:46:32;0.65;;;0.35;;
39434;SDS011;66825;51.880;-0.518;2023-05-16T03:48:57;0.90;;;0.50;;
39434;SDS011;66825;51.880;-0.518;2023-05-16T03:51:23;0.70;;;0.40;;
39434;SDS011;66825;51.880;-0.518;2023-05-16T03:53:48;0.80;;;0.40;;
39434;SDS011;66825;51.880;-0.518;2023-05-16T03:56:14;0.93;;;0.38;;
39434;SDS011;66825;51.880;-0.518;2023-05-16T03:58:39;0.90;;;0.50;;
39434;SDS011;66825;51.880;-0.518;2023-05-16T04:01:05;1.17;;;0.50;;
39434;SDS011;66825;51.880;-0.518;2023-05-16T04:03:30;1.13;;;0.50;;
39434;SDS011;66825;51.880;-0.518;2023-05-16T04:05:57;1.38;;;0.40;;
39434;SDS011;66825;51.880;-0.518;2023-05-16T04:08:23;1.02;;;0.50;;
39434;SDS011;66825;51.880;-0.518;2023-05-16T04:10:50;0.75;;;0.45;;
39434;SDS011;66825;51.880;-0.518;2023-05-16T04:13:15;1.13;;;0.52;;
39434;SDS011;66825;51.880;-0.518;2023-05-16T04:15:41;0.77;;;0.43;;
39434;SDS011;66825;51.880;-0.518;2023-05-16T04:18:07;1.15;;;0.50;;
39434;SDS011;66825;51.880;-0.518;2023-05-16T04:20:33;1.20;;;0.50;;
39434;SDS011;66825;51.880;-0.518;2023-05-16T04:23:00;1.02;;;0.50;;
39434;SDS011;66825;51.880;-0.518;2023-05-16T04:25:25;0.60;;;0.32;;
39434;SDS011;66825;51.880;-0.518;2023-05-16T04:27:51;0.90;;;0.40;;
39434;SDS011;66825;51.880;-0.518;2023-05-16T04:30:16;0.88;;;0.40;;
39434;SDS011;66825;51.880;-0.518;2023-05-16T04:32:42;0.77;;;0.50;;
39434;SDS011;66825;51.880;-0.518;2023-05-16T04:35:07;1.30;;;0.50;;
39434;SDS011;66825;51.880;-0.518;2023-05-16T04:37:33;1.10;;;0.50;;
39434;SDS011;66825;51.880;-0.518;2023-05-16T04:40:00;0.70;;;0.30;;
39434;SDS011;66825;51.880;-0.518;2023-05-16T04:42:25;0.70;;;0.40;;
39434;SDS011;66825;51.880;-0.518;2023-05-16T04:44:51;0.80;;;0.40;;
39434;SDS011;66825;51.880;-0.518;2023-05-16T04:47:17;0.75;;;0.50;;
39434;SDS011;66825;51.880;-0.518;2023-05-16T04:49:43;0.90;;;0.40;;
39434;SDS011;66825;51.880;-0.518;2023-05-16T04:52:08;1.15;;;0.55;;
39434;SDS011;66825;51.880;-0.518;2023-05-16T04:54:36;0.70;;;0.43;;
39434;SDS011;66825;51.880;-0.518;2023-05-16T04:57:02;1.23;;;0.60;;
39434;SDS011;66825;51.880;-0.518;2023-05-16T04:59:28;1.42;;;0.50;;
39434;SDS011;66825;51.880;-0.518;2023-05-16T05:01:53;1.33;;;0.45;;
39434;SDS011;66825;51.880;-0.518;2023-05-16T05:04:18;1.27;;;0.50;;
39434;SDS011;66825;51.880;-0.518;2023-05-16T05:06:44;0.80;;;0.57;;
39434;SDS011;66825;51.880;-0.518;2023-05-16T05:09:09;0.50;;;0.40;;
39434;SDS011;66825;51.880;-0.518;2023-05-16T05:11:35;1.23;;;0.65;;
39434;SDS011;66825;51.880;-0.518;2023-05-16T05:14:00;0.90;;;0.40;;
39434;SDS011;66825;51.880;-0.518;2023-05-16T05:16:26;0.80;;;0.40;;
39434;SDS011;66825;51.880;-0.518;2023-05-16T05:18:52;1.13;;;0.55;;
39434;SDS011;66825;51.880;-0.518;2023-05-16T05:21:17;1.00;;;0.40;;
39434;SDS011;66825;51.880;-0.518;2023-05-16T05:23:44;0.73;;;0.32;;
39434;SDS011;66825;51.880;-0.518;2023-05-16T05:26:10;0.65;;;0.40;;
39434;SDS011;66825;51.880;-0.518;2023-05-16T05:28:36;0.80;;;0.40;;
39434;SDS011;66825;51.880;-0.518;2023-05-16T05:31:02;1.17;;;0.47;;
39434;SDS011;66825;51.880;-0.518;2023-05-16T05:33:29;1.40;;;0.70;;
39434;SDS011;66825;51.880;-0.518;2023-05-16T05:35:55;0.93;;;0.40;;
39434;SDS011;66825;51.880;-0.518;2023-05-16T05:38:21;1.05;;;0.40;;
39434;SDS011;66825;51.880;-0.518;2023-05-16T05:40:46;0.52;;;0.40;;
39434;SDS011;66825;51.880;-0.518;2023-05-16T05:43:13;1.23;;;0.45;;
39434;SDS011;66825;51.880;-0.518;2023-05-16T05:45:39;0.85;;;0.40;;
39434;SDS011;66825;51.880;-0.518;2023-05-16T05:48:05;0.95;;;0.40;;
39434;SDS011;66825;51.880;-0.518;2023-05-16T05:50:31;1.05;;;0.50;;
39434;SDS011;66825;51.880;-0.518;2023-05-16T05:52:57;0.90;;;0.40;;
39434;SDS011;66825;51.880;-0.518;2023-05-16T05:55:23;1.40;;;0.55;;
39434;SDS011;66825;51.880;-0.518;2023-05-16T05:57:48;1.25;;;0.43;;
39434;SDS011;66825;51.880;-0.518;2023-05-16T06:00:14;0.73;;;0.50;;
39434;SDS011;66825;51.880;-0.518;2023-05-16T06:02:40;1.65;;;0.40;;
39434;SDS011;66825;51.880;-0.518;2023-05-16T06:05:05;2.03;;;0.60;;
39434;SDS011;66825;51.880;-0.518;2023-05-16T06:07:31;0.85;;;0.50;;
39434;SDS011;66825;51.880;-0.518;2023-05-16T06:09:57;1.00;;;0.40;;
39434;SDS011;66825;51.880;-0.518;2023-05-16T06:12:22;1.15;;;0.57;;
39434;SDS011;66825;51.880;-0.518;2023-05-16T06:14:47;0.90;;;0.50;;
39434;SDS011;66825;51.880;-0.518;2023-05-16T06:17:13;1.30;;;0.50;;
39434;SDS011;66825;51.880;-0.518;2023-05-16T06:19:39;0.98;;;0.40;;
39434;SDS011;66825;51.880;-0.518;2023-05-16T06:22:04;0.80;;;0.50;;
39434;SDS011;66825;51.880;-0.518;2023-05-16T06:24:29;0.63;;;0.32;;
39434;SDS011;66825;51.880;-0.518;2023-05-16T06:26:55;1.27;;;0.45;;
39434;SDS011;66825;51.880;-0.518;2023-05-16T06:29:21;0.95;;;0.50;;
39434;SDS011;66825;51.880;-0.518;2023-05-16T06:31:46;0.85;;;0.40;;
39434;SDS011;66825;51.880;-0.518;2023-05-16T06:34:11;0.85;;;0.40;;
39434;SDS011;66825;51.880;-0.518;2023-05-16T06:36:37;1.48;;;0.60;;
39434;SDS011;66825;51.880;-0.518;2023-05-16T06:39:02;1.08;;;0.40;;
39434;SDS011;66825;51.880;-0.518;2023-05-16T06:41:29;1.33;;;0.43;;
39434;SDS011;66825;51.880;-0.518;2023-05-16T06:43:55;0.43;;;0.30;;
39434;SDS011;66825;51.880;-0.518;2023-05-16T06:46:21;1.55;;;0.47;;
39434;SDS011;66825;51.880;-0.518;2023-05-16T06:48:46;1.00;;;0.52;;
39434;SDS011;66825;51.880;-0.518;2023-05-16T06:51:12;1.23;;;0.45;;
39434;SDS011;66825;51.880;-0.518;2023-05-16T06:53:37;0.93;;;0.50;;
39434;SDS011;66825;51.880;-0.518;2023-05-16T06:56:03;0.80;;;0.60;;
39434;SDS011;66825;51.880;-0.518;2023-05-16T06:58:28;1.13;;;0.50;;
39434;SDS011;66825;51.880;-0.518;2023-05-16T07:00:54;0.90;;;0.50;;
39434;SDS011;66825;51.880;-0.518;2023-05-16T07:03:20;0.98;;;0.50;;
39434;SDS011;66825;51.880;-0.518;2023-05-16T07:05:45;1.15;;;0.40;;
39434;SDS011;66825;51.880;-0.518;2023-05-16T07:08:10;0.70;;;0.40;;
39434;SDS011;66825;51.880;-0.518;2023-05-16T07:10:36;1.27;;;0.55;;
39434;SDS011;66825;51.880;-0.518;2023-05-16T07:13:02;0.90;;;0.40;;
39434;SDS011;66825;51.880;-0.518;2023-05-16T07:15:29;1.35;;;0.50;;
39434;SDS011;66825;51.880;-0.518;2023-05-16T07:17:55;0.80;;;0.40;;
39434;SDS011;66825;51.880;-0.518;2023-05-16T07:20:21;0.93;;;0.57;;
39434;SDS011;66825;51.880;-0.518;2023-05-16T07:22:47;1.10;;;0.50;;
39434;SDS011;66825;51.880;-0.518;2023-05-16T07:25:12;1.15;;;0.50;;
39434;SDS011;66825;51.880;-0.518;2023-05-16T07:27:39;1.20;;;0.60;;
39434;SDS011;66825;51.880;-0.518;2023-05-16T07:30:07;1.67;;;0.50;;
39434;SDS011;66825;51.880;-0.518;2023-05-16T07:32:34;1.00;;;0.43;;
39434;SDS011;66825;51.880;-0.518;2023-05-16T07:34:59;1.45;;;0.60;;
39434;SDS011;66825;51.880;-0.518;2023-05-16T07:37:25;1.33;;;0.60;;
39434;SDS011;66825;51.880;-0.518;2023-05-16T07:39:50;1.30;;;0.50;;
39434;SDS011;66825;51.880;-0.518;2023-05-16T07:42:16;1.08;;;0.60;;
39434;SDS011;66825;51.880;-0.518;2023-05-16T07:44:41;1.38;;;0.43;;
39434;SDS011;66825;51.880;-0.518;2023-05-16T07:47:06;1.67;;;0.80;;
39434;SDS011;66825;51.880;-0.518;2023-05-16T07:49:32;1.90;;;0.65;;
39434;SDS011;66825;51.880;-0.518;2023-05-16T07:51:57;1.05;;;0.52;;
39434;SDS011;66825;51.880;-0.518;2023-05-16T07:54:23;1.67;;;0.60;;
39434;SDS011;66825;51.880;-0.518;2023-05-16T07:56:48;0.95;;;0.50;;
39434;SDS011;66825;51.880;-0.518;2023-05-16T07:59:14;1.60;;;0.60;;
39434;SDS011;66825;51.880;-0.518;2023-05-16T08:01:39;1.58;;;0.63;;
39434;SDS011;66825;51.880;-0.518;2023-05-16T08:04:05;1.30;;;0.57;;
39434;SDS011;66825;51.880;-0.518;2023-05-16T08:06:31;2.10;;;0.73;;
39434;SDS011;66825;51.880;-0.518;2023-05-16T08:08:56;1.50;;;0.65;;
39434;SDS011;66825;51.880;-0.518;2023-05-16T08:11:22;1.50;;;0.80;;
39434;SDS011;66825;51.880;-0.518;2023-05-16T08:13:48;1.40;;;0.50;;
39434;SDS011;66825;51.880;-0.518;2023-05-16T08:16:14;2.20;;;0.70;;
39434;SDS011;66825;51.880;-0.518;2023-05-16T08:18:39;1.05;;;0.50;;
39434;SDS011;66825;51.880;-0.518;2023-05-16T08:21:06;1.95;;;0.70;;
39434;SDS011;66825;51.880;-0.518;2023-05-16T08:23:33;1.40;;;0.70;;
39434;SDS011;66825;51.880;-0.518;2023-05-16T08:25:58;1.50;;;0.70;;
39434;SDS011;66825;51.880;-0.518;2023-05-16T08:28:24;3.05;;;0.70;;
39434;SDS011;66825;51.880;-0.518;2023-05-16T08:30:49;3.03;;;0.70;;
39434;SDS011;66825;51.880;-0.518;2023-05-16T08:33:15;2.47;;;0.80;;
39434;SDS011;66825;51.880;-0.518;2023-05-16T08:35:41;2.60;;;0.68;;
39434;SDS011;66825;51.880;-0.518;2023-05-16T08:38:08;2.22;;;0.75;;
39434;SDS011;66825;51.880;-0.518;2023-05-16T08:40:33;3.03;;;0.73;;
39434;SDS011;66825;51.880;-0.518;2023-05-16T08:42:59;7.03;;;1.30;;
39434;SDS011;66825;51.880;-0.518;2023-05-16T08:45:25;5.45;;;0.98;;
39434;SDS011;66825;51.880;-0.518;2023-05-16T08:47:53;5.80;;;1.20;;
39434;SDS011;66825;51.880;-0.518;2023-05-16T08:50:20;3.00;;;1.13;;
39434;SDS011;66825;51.880;-0.518;2023-05-16T08:52:46;6.30;;;1.35;;
39434;SDS011;66825;51.880;-0.518;2023-05-16T08:55:16;3.70;;;1.20;;
39434;SDS011;66825;51.880;-0.518;2023-05-16T08:57:44;3.70;;;1.17;;
39434;SDS011;66825;51.880;-0.518;2023-05-16T09:00:09;3.70;;;1.20;;
39434;SDS011;66825;51.880;-0.518;2023-05-16T09:02:42;4.85;;;1.20;;
39434;SDS011;66825;51.880;-0.518;2023-05-16T09:05:10;4.80;;;1.40;;
39434;SDS011;66825;51.880;-0.518;2023-05-16T09:07:36;8.52;;;1.85;;
39434;SDS011;66825;51.880;-0.518;2023-05-16T09:10:03;7.65;;;1.65;;
39434;SDS011;66825;51.880;-0.518;2023-05-16T09:12:31;3.63;;;1.33;;
39434;SDS011;66825;51.880;-0.518;2023-05-16T09:14:57;5.85;;;1.30;;
39434;SDS011;66825;51.880;-0.518;2023-05-16T09:17:22;7.65;;;1.52;;
39434;SDS011;66825;51.880;-0.518;2023-05-16T09:19:48;3.88;;;1.50;;
39434;SDS011;66825;51.880;-0.518;2023-05-16T09:22:17;6.43;;;1.58;;
39434;SDS011;66825;51.880;-0.518;2023-05-16T09:24:43;6.05;;;1.20;;
39434;SDS011;66825;51.880;-0.518;2023-05-16T09:27:13;8.95;;;2.17;;
39434;SDS011;66825;51.880;-0.518;2023-05-16T09:29:40;7.50;;;1.90;;
39434;SDS011;66825;51.880;-0.518;2023-05-16T09:32:09;10.15;;;2.08;;
39434;SDS011;66825;51.880;-0.518;2023-05-16T09:34:37;8.32;;;1.83;;
39434;SDS011;66825;51.880;-0.518;2023-05-16T09:37:16;11.48;;;2.40;;
39434;SDS011;66825;51.880;-0.518;2023-05-16T09:39:46;8.38;;;1.95;;
39434;SDS011;66825;51.880;-0.518;2023-05-16T09:44:40;7.50;;;2.03;;
39434;SDS011;66825;51.880;-0.518;2023-05-16T09:47:06;8.07;;;1.83;;
39434;SDS011;66825;51.880;-0.518;2023-05-16T09:49:31;8.38;;;2.40;;
39434;SDS011;66825;51.880;-0.518;2023-05-16T09:52:00;4.20;;;1.50;;
39434;SDS011;66825;51.880;-0.518;2023-05-16T09:54:30;3.35;;;1.20;;
39434;SDS011;66825;51.880;-0.518;2023-05-16T09:56:57;7.63;;;1.50;;
39434;SDS011;66825;51.880;-0.518;2023-05-16T09:59:23;12.20;;;2.53;;
39434;SDS011;66825;51.880;-0.518;2023-05-16T10:01:48;7.07;;;2.40;;
39434;SDS011;66825;51.880;-0.518;2023-05-16T10:04:15;5.50;;;2.13;;
39434;SDS011;66825;51.880;-0.518;2023-05-16T10:06:41;7.95;;;2.05;;
39434;SDS011;66825;51.880;-0.518;2023-05-16T10:09:09;9.18;;;2.50;;
39434;SDS011;66825;51.880;-0.518;2023-05-16T10:11:36;19.45;;;6.07;;
39434;SDS011;66825;51.880;-0.518;2023-05-16T10:14:04;5.97;;;2.55;;
39434;SDS011;66825;51.880;-0.518;2023-05-16T10:16:30;8.95;;;1.70;;
39434;SDS011;66825;51.880;-0.518;2023-05-16T10:18:57;5.72;;;1.73;;
39434;SDS011;66825;51.880;-0.518;2023-05-16T10:21:24;8.10;;;1.90;;
39434;SDS011;66825;51.880;-0.518;2023-05-16T10:23:52;7.43;;;1.90;;
39434;SDS011;66825;51.880;-0.518;2023-05-16T10:26:21;7.00;;;1.80;;
39434;SDS011;66825;51.880;-0.518;2023-05-16T10:28:47;4.60;;;1.40;;
39434;SDS011;66825;51.880;-0.518;2023-05-16T10:31:14;3.72;;;1.10;;
39434;SDS011;66825;51.880;-0.518;2023-05-16T10:33:40;6.18;;;1.48;;
39434;SDS011;66825;51.880;-0.518;2023-05-16T10:36:09;5.57;;;1.45;;
39434;SDS011;66825;51.880;-0.518;2023-05-16T10:38:36;7.20;;;2.00;;
39434;SDS011;66825;51.880;-0.518;2023-05-16T10:41:03;7.03;;;1.85;;
39434;SDS011;66825;51.880;-0.518;2023-05-16T10:43:29;4.18;;;1.52;;
39434;SDS011;66825;51.880;-0.518;2023-05-16T10:45:56;4.85;;;1.60;;
39434;SDS011;66825;51.880;-0.518;2023-05-16T10:48:39;6.50;;;1.40;;
39434;SDS011;66825;51.880;-0.518;2023-05-16T10:53:46;4.90;;;1.25;;
39434;SDS011;66825;51.880;-0.518;2023-05-16T10:56:11;2.80;;;1.00;;
39434;SDS011;66825;51.880;-0.518;2023-05-16T11:14:25;4.15;;;1.52;;
39434;SDS011;66825;51.880;-0.518;2023-05-16T11:24:51;4.97;;;1.60;;
39434;SDS011;66825;51.880;-0.518;2023-05-16T11:27:21;8.00;;;1.67;;
39434;SDS011;66825;51.880;-0.518;2023-05-16T11:29:48;5.63;;;1.50;;
39434;SDS011;66825;51.880;-0.518;2023-05-16T11:32:14;6.32;;;1.90;;
39434;SDS011;66825;51.880;-0.518;2023-05-16T11:34:44;6.70;;;2.20;;
39434;SDS011;66825;51.880;-0.518;2023-05-16T11:37:11;9.23;;;2.13;;
39434;SDS011;66825;51.880;-0.518;2023-05-16T11:39:37;4.00;;;1.50;;
39434;SDS011;66825;51.880;-0.518;2023-05-16T11:42:02;11.77;;;2.67;;
39434;SDS011;66825;51.880;-0.518;2023-05-16T11:44:28;5.47;;;1.80;;
39434;SDS011;66825;51.880;-0.518;2023-05-16T11:46:53;8.93;;;2.20;;
39434;SDS011;66825;51.880;-0.518;2023-05-16T11:49:19;6.00;;;1.90;;
39434;SDS011;66825;51.880;-0.518;2023-05-16T11:51:45;4.07;;;1.60;;
39434;SDS011;66825;51.880;-0.518;2023-05-16T11:54:11;7.75;;;1.70;;
39434;SDS011;66825;51.880;-0.518;2023-05-16T11:56:38;5.80;;;1.48;;
39434;SDS011;66825;51.880;-0.518;2023-05-16T11:59:04;6.10;;;1.75;;
39434;SDS011;66825;51.880;-0.518;2023-05-16T12:01:32;5.97;;;1.50;;
39434;SDS011;66825;51.880;-0.518;2023-05-16T12:03:59;6.05;;;1.40;;
39434;SDS011;66825;51.880;-0.518;2023-05-16T12:06:25;4.38;;;2.00;;
39434;SDS011;66825;51.880;-0.518;2023-05-16T12:08:50;4.57;;;1.70;;
39434;SDS011;66825;51.880;-0.518;2023-05-16T12:11:16;3.97;;;2.00;;
39434;SDS011;66825;51.880;-0.518;2023-05-16T12:13:42;4.97;;;1.83;;
39434;SDS011;66825;51.880;-0.518;2023-05-16T12:16:08;6.35;;;2.10;;
39434;SDS011;66825;51.880;-0.518;2023-05-16T12:18:36;3.72;;;1.70;;
39434;SDS011;66825;51.880;-0.518;2023-05-16T12:21:03;4.45;;;2.00;;
39434;SDS011;66825;51.880;-0.518;2023-05-16T12:23:31;4.35;;;1.88;;
39434;SDS011;66825;51.880;-0.518;2023-05-16T12:25:57;3.58;;;2.10;;
39434;SDS011;66825;51.880;-0.518;2023-05-16T12:28:29;4.68;;;1.95;;
39434;SDS011;66825;51.880;-0.518;2023-05-16T12:30:57;6.90;;;2.42;;
39434;SDS011;66825;51.880;-0.518;2023-05-16T12:33:23;10.55;;;3.15;;
39434;SDS011;66825;51.880;-0.518;2023-05-16T12:35:48;7.25;;;2.85;;
39434;SDS011;66825;51.880;-0.518;2023-05-16T12:38:15;7.95;;;3.33;;
39434;SDS011;66825;51.880;-0.518;2023-05-16T12:40:42;6.75;;;3.03;;
39434;SDS011;66825;51.880;-0.518;2023-05-16T12:45:49;15.15;;;4.32;;
39434;SDS011;66825;51.880;-0.518;2023-05-16T12:48:19;6.10;;;3.10;;
39434;SDS011;66825;51.880;-0.518;2023-05-16T12:50:45;9.45;;;3.40;;
39434;SDS011;66825;51.880;-0.518;2023-05-16T12:53:13;5.13;;;2.65;;
39434;SDS011;66825;51.880;-0.518;2023-05-16T12:55:40;4.75;;;2.30;;
39434;SDS011;66825;51.880;-0.518;2023-05-16T12:58:06;5.95;;;2.47;;
39434;SDS011;66825;51.880;-0.518;2023-05-16T13:00:32;8.65;;;3.15;;
39434;SDS011;66825;51.880;-0.518;2023-05-16T13:02:57;6.25;;;3.00;;
39434;SDS011;66825;51.880;-0.518;2023-05-16T13:05:23;5.45;;;2.60;;
39434;SDS011;66825;51.880;-0.518;2023-05-16T13:07:49;6.47;;;3.33;;
39434;SDS011;66825;51.880;-0.518;2023-05-16T13:10:18;6.15;;;2.80;;
39434;SDS011;66825;51.880;-0.518;2023-05-16T13:12:44;7.57;;;3.03;;
39434;SDS011;66825;51.880;-0.518;2023-05-16T13:15:10;6.78;;;3.08;;
39434;SDS011;66825;51.880;-0.518;2023-05-16T13:17:36;6.38;;;2.83;;
39434;SDS011;66825;51.880;-0.518;2023-05-16T13:20:03;6.65;;;2.83;;
39434;SDS011;66825;51.880;-0.518;2023-05-16T13:22:33;6.72;;;3.15;;
39434;SDS011;66825;51.880;-0.518;2023-05-16T13:24:59;5.20;;;2.90;;
39434;SDS011;66825;51.880;-0.518;2023-05-16T13:27:24;5.35;;;3.00;;
39434;SDS011;66825;51.880;-0.518;2023-05-16T13:29:50;6.93;;;3.03;;
39434;SDS011;66825;51.880;-0.518;2023-05-16T13:32:15;4.85;;;3.17;;
39434;SDS011;66825;51.880;-0.518;2023-05-16T13:34:41;6.22;;;2.80;;
39434;SDS011;66825;51.880;-0.518;2023-05-16T13:37:07;8.88;;;3.33;;
39434;SDS011;66825;51.880;-0.518;2023-05-16T13:39:32;6.63;;;3.67;;
39434;SDS011;66825;51.880;-0.518;2023-05-16T13:41:58;6.72;;;3.28;;
39434;SDS011;66825;51.880;-0.518;2023-05-16T13:44:24;8.52;;;3.58;;
39434;SDS011;66825;51.880;-0.518;2023-05-16T13:46:50;6.90;;;3.45;;
39434;SDS011;66825;51.880;-0.518;2023-05-16T13:49:16;4.72;;;3.30;;
39434;SDS011;66825;51.880;-0.518;2023-05-16T13:51:41;6.65;;;3.70;;
39434;SDS011;66825;51.880;-0.518;2023-05-16T13:54:07;7.20;;;3.83;;
39434;SDS011;66825;51.880;-0.518;2023-05-16T13:56:32;6.03;;;3.70;;
39434;SDS011;66825;51.880;-0.518;2023-05-16T13:58:58;4.93;;;3.10;;
39434;SDS011;66825;51.880;-0.518;2023-05-16T14:01:23;10.05;;;3.47;;
39434;SDS011;66825;51.880;-0.518;2023-05-16T14:03:49;5.45;;;3.38;;
39434;SDS011;66825;51.880;-0.518;2023-05-16T14:06:14;5.93;;;3.15;;
39434;SDS011;66825;51.880;-0.518;2023-05-16T14:08:40;5.95;;;3.80;;
39434;SDS011;66825;51.880;-0.518;2023-05-16T14:11:06;11.20;;;4.10;;
39434;SDS011;66825;51.880;-0.518;2023-05-16T14:13:31;8.23;;;3.60;;
39434;SDS011;66825;51.880;-0.518;2023-05-16T14:15:56;5.80;;;3.95;;
39434;SDS011;66825;51.880;-0.518;2023-05-16T14:18:22;8.80;;;4.35;;
39434;SDS011;66825;51.880;-0.518;2023-05-16T14:20:48;10.65;;;4.38;;
39434;SDS011;66825;51.880;-0.518;2023-05-16T14:23:14;7.97;;;4.30;;
39434;SDS011;66825;51.880;-0.518;2023-05-16T14:25:40;5.40;;;3.70;;
39434;SDS011;66825;51.880;-0.518;2023-05-16T14:28:06;6.47;;;3.95;;
39434;SDS011;66825;51.880;-0.518;2023-05-16T14:30:32;6.85;;;3.88;;
39434;SDS011;66825;51.880;-0.518;2023-05-16T14:32:57;10.60;;;4.57;;
39434;SDS011;66825;51.880;-0.518;2023-05-16T14:35:23;8.50;;;3.92;;
39434;SDS011;66825;51.880;-0.518;2023-05-16T14:37:49;9.48;;;4.55;;
39434;SDS011;66825;51.880;-0.518;2023-05-16T14:40:14;13.25;;;4.93;;
39434;SDS011;66825;51.880;-0.518;2023-05-16T14:42:40;11.07;;;5.13;;
39434;SDS011;66825;51.880;-0.518;2023-05-16T14:45:05;9.95;;;4.95;;
39434;SDS011;66825;51.880;-0.518;2023-05-16T14:47:31;8.07;;;4.43;;
39434;SDS011;66825;51.880;-0.518;2023-05-16T14:49:57;11.82;;;5.05;;
39434;SDS011;66825;51.880;-0.518;2023-05-16T14:52:22;9.23;;;5.32;;
39434;SDS011;66825;51.880;-0.518;2023-05-16T14:54:48;11.20;;;5.22;;
39434;SDS011;66825;51.880;-0.518;2023-05-16T14:57:13;10.32;;;5.45;;
39434;SDS011;66825;51.880;-0.518;2023-05-16T14:59:39;8.65;;;4.90;;
39434;SDS011;66825;51.880;-0.518;2023-05-16T15:02:04;11.82;;;4.90;;
39434;SDS011;66825;51.880;-0.518;2023-05-16T15:04:31;9.77;;;5.22;;
39434;SDS011;66825;51.880;-0.518;2023-05-16T15:06:56;10.57;;;5.03;;
39434;SDS011;66825;51.880;-0.518;2023-05-16T15:09:22;8.40;;;4.68;;
39434;SDS011;66825;51.880;-0.518;2023-05-16T15:11:47;7.80;;;4.43;;
39434;SDS011;66825;51.880;-0.518;2023-05-16T15:14:13;10.82;;;5.57;;
39434;SDS011;66825;51.880;-0.518;2023-05-16T15:16:38;7.90;;;4.93;;
39434;SDS011;66825;51.880;-0.518;2023-05-16T15:19:04;9.57;;;4.90;;